Time;durP1;ratioP1;P1;durP2;ratioP2;P2;SDS_P1;SDS_P2;PMS_P1;PMS_P2;Temp;Humidity;BMP_temperature;BMP_pressure;BME280_temperature;BME280_humidity;BME280_pressure;Samples;Min_cycle;Max_cycle;Signal;HPM_P1;HPM_P2
2024/01/24 00:08:34;;;;;;;0.40;0.00;;;0.30;92.70;;;;;;20911118;28;20036;-49
2024/01/24 00:18:35;;;;;;;1.05;0.10;;;0.40;93.30;;;;;;20909639;28;20085;-44
2024/01/24 00:28:37;;;;;;;0.55;0.13;;;0.50;92.50;;;;;;20909211;28;20044;-43
2024/01/24 00:38:39;;;;;;;0.80;0.10;;;0.70;91.90;;;;;;20908816;28;20047;-45
2024/01/24 00:48:40;;;;;;;0.20;0.00;;;0.60;92.00;;;;;;20907811;28;20044;-44
2024/01/24 00:58:42;;;;;;;0.52;0.10;;;0.40;92.30;;;;;;20906546;28;20489;-43
2024/01/24 01:08:44;;;;;;;2.05;0.30;;;0.60;91.40;;;;;;20908615;28;20039;-43
2024/01/24 01:18:46;;;;;;;0.55;0.20;;;1.00;89.70;;;;;;20907622;28;20101;-45
2024/01/24 01:28:47;;;;;;;1.33;0.55;;;3.20;85.70;;;;;;20907579;28;20039;-45
2024/01/24 01:38:52;;;;;;;0.80;0.40;;;2.70;86.50;;;;;;20884935;28;20052;-48
2024/01/24 01:48:57;;;;;;;0.10;0.00;;;1.80;88.20;;;;;;20903497;28;20044;-44
2024/01/24 01:59:03;;;;;;;1.23;0.40;;;4.60;86.10;;;;;;20902402;28;20056;-47
2024/01/24 02:09:09;;;;;;;1.40;0.55;;;4.80;83.40;;;;;;20914938;28;20590;-42
2024/01/24 02:19:11;;;;;;;1.95;0.10;;;3.50;83.90;;;;;;20919607;28;21034;-43
2024/01/24 02:29:13;;;;;;;0.10;0.00;;;3.60;91.40;;;;;;20918799;28;20149;-43
2024/01/24 02:39:15;;;;;;;1.83;0.50;;;7.10;76.40;;;;;;20894349;28;20045;-43
2024/01/24 02:49:17;;;;;;;0.30;0.00;;;6.40;76.00;;;;;;20875403;28;20493;-45
2024/01/24 02:59:18;;;;;;;1.25;0.20;;;5.30;77.70;;;;;;20875632;28;20040;-45
2024/01/24 03:09:23;;;;;;;1.98;0.80;;;6.50;74.50;;;;;;20875346;28;20089;-43
2024/01/24 03:19:25;;;;;;;0.00;0.00;;;5.20;77.50;;;;;;20873284;28;20112;-43
2024/01/24 03:29:27;;;;;;;1.13;0.30;;;6.90;76.80;;;;;;20875457;28;20044;-43
2024/01/24 03:39:29;;;;;;;0.20;0.00;;;6.30;76.20;;;;;;20895389;28;20047;-43
2024/01/24 03:49:30;;;;;;;1.45;0.00;;;5.70;81.80;;;;;;20911385;28;20040;-43
2024/01/24 03:59:39;;;;;;;0.93;0.10;;;7.90;79.40;;;;;;20911139;28;20555;-44
2024/01/24 04:09:42;;;;;;;0.30;0.08;;;8.50;75.30;;;;;;20911444;28;20032;-44
2024/01/24 04:19:44;;;;;;;0.40;0.20;;;8.00;77.20;;;;;;20911319;28;20097;-43
2024/01/24 04:29:46;;;;;;;0.30;0.13;;;7.60;73.60;;;;;;20910861;28;20050;-43
2024/01/24 04:39:47;;;;;;;0.22;0.00;;;6.60;76.00;;;;;;20884456;28;20056;-43
2024/01/24 04:49:49;;;;;;;0.47;0.10;;;7.00;75.00;;;;;;20866774;28;20040;-43
2024/01/24 04:59:51;;;;;;;0.52;0.20;;;6.50;74.40;;;;;;20866572;28;20048;-46
2024/01/24 05:09:53;;;;;;;1.15;0.40;;;5.40;77.60;;;;;;20867404;28;20056;-44
2024/01/24 05:19:55;;;;;;;0.60;0.35;;;3.30;82.30;;;;;;20850852;28;20045;-43
2024/01/24 05:29:58;;;;;;;0.68;0.20;;;2.40;85.00;;;;;;20856653;28;20117;-42
2024/01/24 05:40:00;;;;;;;2.08;0.20;;;2.80;86.70;;;;;;20867497;28;21180;-43
2024/01/24 05:50:03;;;;;;;0.95;0.40;;;2.70;85.80;;;;;;20881404;28;20066;-45
2024/01/24 06:00:13;;;;;;;0.40;0.10;;;2.30;86.50;;;;;;20880435;28;20033;-43
2024/01/24 06:10:16;;;;;;;0.67;0.20;;;2.80;90.10;;;;;;20879011;28;20184;-46
2024/01/24 06:20:17;;;;;;;0.55;0.10;;;3.90;90.20;;;;;;20877770;28;20040;-43
2024/01/24 06:30:19;;;;;;;0.40;0.10;;;5.50;91.80;;;;;;20876558;28;20045;-43
2024/01/24 06:40:21;;;;;;;0.50;0.20;;;7.40;82.20;;;;;;20904331;28;20044;-43
2024/01/24 06:50:24;;;;;;;0.38;0.10;;;5.70;85.10;;;;;;20913693;28;20093;-43
2024/01/24 07:00:27;;;;;;;0.03;0.00;;;8.40;89.90;;;;;;20911633;28;20133;-46
2024/01/24 07:10:29;;;;;;;0.68;0.00;;;9.10;85.10;;;;;;20887680;28;20036;-46
2024/01/24 07:20:31;;;;;;;0.20;0.10;;;6.80;91.60;;;;;;20909895;28;20078;-43
2024/01/24 07:30:35;;;;;;;0.15;0.10;;;6.60;83.70;;;;;;20909601;28;20040;-43
2024/01/24 07:40:37;;;;;;;2.97;0.30;;;5.90;90.80;;;;;;20910498;28;21065;-43
2024/01/24 07:50:39;;;;;;;0.73;0.30;;;5.70;80.10;;;;;;20907377;28;20658;-47
2024/01/24 08:00:41;;;;;;;1.50;0.30;;;4.30;83.30;;;;;;20906332;28;20036;-42
2024/01/24 08:10:43;;;;;;;0.88;0.30;;;4.80;84.60;;;;;;20909348;28;20172;-42
2024/01/24 08:20:45;;;;;;;1.15;0.40;;;5.00;82.70;;;;;;20905447;28;20031;-44
2024/01/24 08:30:46;;;;;;;0.45;0.22;;;5.70;82.10;;;;;;20904369;28;20126;-42
2024/01/24 08:40:48;;;;;;;3.03;0.32;;;5.90;80.10;;;;;;20904356;28;20044;-42
2024/01/24 08:50:50;;;;;;;0.32;0.20;;;6.00;81.30;;;;;;20902319;28;20133;-44
2024/01/24 09:00:52;;;;;;;1.13;0.32;;;5.50;81.80;;;;;;20903286;28;20043;-44
2024/01/24 09:10:53;;;;;;;1.70;0.20;;;6.50;81.00;;;;;;20903635;28;20485;-43
2024/01/24 09:20:56;;;;;;;0.90;0.30;;;7.40;78.90;;;;;;20914301;28;21134;-43
2024/01/24 09:30:57;;;;;;;5.10;2.30;;;7.40;78.60;;;;;;20891975;28;20097;-43
2024/01/24 09:41:00;;;;;;;14.60;7.68;;;7.00;78.50;;;;;;20917624;28;20040;-43
2024/01/24 09:51:03;;;;;;;18.17;9.00;;;7.10;77.80;;;;;;20915445;28;20052;-43
2024/01/24 10:01:09;;;;;;;23.50;11.25;;;6.80;77.00;;;;;;20891828;28;20091;-45
2024/01/24 10:11:11;;;;;;;18.77;8.88;;;6.20;79.40;;;;;;20890199;28;20040;-44
2024/01/24 10:21:13;;;;;;;10.43;5.13;;;6.60;80.10;;;;;;20916986;28;20664;-43
2024/01/24 10:31:17;;;;;;;9.38;4.00;;;6.90;79.30;;;;;;20915649;28;20116;-44
2024/01/24 10:41:22;;;;;;;4.00;2.25;;;7.60;80.30;;;;;;20884810;28;21527;-44
2024/01/24 10:51:26;;;;;;;3.63;1.33;;;7.80;79.70;;;;;;20875318;28;20094;-44
2024/01/24 11:01:28;;;;;;;4.07;2.20;;;8.30;77.60;;;;;;20874643;28;20048;-46
2024/01/24 11:11:33;;;;;;;5.28;3.03;;;8.10;76.80;;;;;;20871084;28;20044;-47
2024/01/24 11:21:37;;;;;;;4.80;2.60;;;9.20;77.20;;;;;;20866734;28;20089;-51
2024/01/24 11:31:40;;;;;;;4.85;2.90;;;10.00;75.40;;;;;;20869341;28;21427;-44
2024/01/24 11:41:42;;;;;;;6.45;2.47;;;10.10;75.90;;;;;;20870188;28;20051;-43
2024/01/24 11:51:44;;;;;;;3.90;2.22;;;10.20;75.70;;;;;;20869104;28;20043;-45
2024/01/24 12:01:49;;;;;;;3.95;2.45;;;10.30;75.10;;;;;;20867207;28;20044;-44
2024/01/24 12:11:51;;;;;;;4.00;2.33;;;10.50;76.20;;;;;;20868774;28;20086;-41
2024/01/24 12:21:53;;;;;;;4.25;2.50;;;11.30;76.50;;;;;;20852241;28;20032;-44
2024/01/24 12:31:54;;;;;;;5.93;2.35;;;11.80;75.80;;;;;;20865840;28;21673;-44
2024/01/24 12:41:56;;;;;;;4.95;2.30;;;12.40;71.70;;;;;;20865927;28;20109;-42
2024/01/24 12:51:58;;;;;;;6.70;3.60;;;11.80;74.20;;;;;;20849399;28;20044;-43
2024/01/24 13:02:04;;;;;;;5.68;3.50;;;11.90;72.40;;;;;;20864110;28;20045;-42
2024/01/24 13:12:07;;;;;;;5.18;3.15;;;12.00;75.00;;;;;;20861741;28;20044;-46
2024/01/24 13:22:10;;;;;;;8.52;5.30;;;12.10;73.70;;;;;;20864443;28;20040;-57
2024/01/24 13:32:11;;;;;;;7.00;4.07;;;11.90;71.30;;;;;;20850406;28;20490;-44
2024/01/24 13:42:13;;;;;;;6.93;3.92;;;10.60;75.60;;;;;;20861542;28;20060;-43
2024/01/24 13:52:15;;;;;;;5.72;3.28;;;10.60;77.00;;;;;;20860861;28;20036;-46
2024/01/24 14:02:17;;;;;;;5.03;2.85;;;10.30;77.00;;;;;;20865728;28;20048;-44
2024/01/24 14:12:19;;;;;;;8.77;5.05;;;10.50;78.30;;;;;;20876143;28;20397;-45
2024/01/24 14:22:21;;;;;;;10.05;5.18;;;10.00;77.40;;;;;;20874804;28;20143;-45
2024/01/24 14:32:22;;;;;;;5.53;3.50;;;9.50;79.70;;;;;;20874431;28;20687;-45
2024/01/24 14:42:24;;;;;;;4.10;2.55;;;9.60;79.10;;;;;;20874829;28;20068;-44
2024/01/24 14:52:26;;;;;;;5.43;2.72;;;9.70;77.50;;;;;;20854007;28;20098;-45
2024/01/24 15:02:28;;;;;;;4.03;2.28;;;9.70;78.50;;;;;;20860589;28;20129;-44
2024/01/24 15:12:30;;;;;;;3.92;2.00;;;9.20;77.40;;;;;;20869491;28;20032;-43
2024/01/24 15:22:32;;;;;;;3.97;1.13;;;9.20;77.70;;;;;;20870147;28;21069;-43
2024/01/24 15:32:34;;;;;;;1.58;0.80;;;9.20;79.60;;;;;;20871050;28;20120;-43
2024/01/24 15:42:40;;;;;;;1.15;0.80;;;8.90;80.50;;;;;;20814368;28;20049;-47
2024/01/24 15:52:42;;;;;;;2.15;0.90;;;8.60;81.40;;;;;;20824579;28;20093;-43
2024/01/24 16:02:44;;;;;;;1.40;1.00;;;8.40;81.70;;;;;;20824477;28;20045;-43
2024/01/24 16:12:46;;;;;;;1.15;0.60;;;8.40;81.60;;;;;;20824073;28;20033;-46
2024/01/24 16:22:51;;;;;;;1.15;0.60;;;7.70;86.20;;;;;;20807149;28;20045;-43
2024/01/24 16:32:54;;;;;;;1.10;0.55;;;7.20;88.40;;;;;;20824043;28;20036;-43
2024/01/24 16:42:56;;;;;;;1.45;0.63;;;7.00;89.10;;;;;;20865314;28;20663;-46
2024/01/24 16:52:58;;;;;;;1.00;0.60;;;6.70;90.00;;;;;;20866536;28;20070;-43
2024/01/24 17:03:00;;;;;;;2.58;0.50;;;6.70;89.50;;;;;;20851686;28;20121;-43
2024/01/24 17:13:02;;;;;;;1.60;0.50;;;6.80;90.30;;;;;;20867520;28;20036;-46
2024/01/24 17:23:04;;;;;;;0.70;0.40;;;6.60;90.50;;;;;;20866999;28;20028;-43
2024/01/24 17:33:06;;;;;;;0.98;0.50;;;6.60;90.30;;;;;;20861970;28;20040;-43
2024/01/24 17:43:08;;;;;;;0.82;0.30;;;6.70;90.10;;;;;;20877870;28;20180;-44
2024/01/24 17:53:14;;;;;;;2.15;0.30;;;6.90;89.10;;;;;;20860332;28;20543;-44
2024/01/24 18:03:15;;;;;;;0.93;0.50;;;7.40;88.50;;;;;;20875701;28;20097;-43
2024/01/24 18:13:17;;;;;;;1.98;0.52;;;7.50;87.90;;;;;;20879846;28;20082;-44
2024/01/24 18:23:22;;;;;;;1.42;0.50;;;7.60;87.90;;;;;;20861476;28;20041;-45
2024/01/24 18:33:23;;;;;;;0.88;0.45;;;7.70;87.60;;;;;;20876912;28;20154;-43
2024/01/24 18:43:25;;;;;;;0.88;0.45;;;7.80;88.70;;;;;;20917336;28;20049;-43
2024/01/24 18:53:27;;;;;;;0.80;0.40;;;7.70;89.00;;;;;;20917034;28;20036;-43
2024/01/24 19:03:32;;;;;;;0.70;0.38;;;7.40;90.30;;;;;;20916209;28;20109;-43
2024/01/24 19:13:35;;;;;;;0.75;0.40;;;7.30;90.70;;;;;;20917216;28;20039;-43
2024/01/24 19:23:37;;;;;;;1.15;0.22;;;7.20;91.10;;;;;;20914609;28;20722;-43
2024/01/24 19:33:39;;;;;;;0.55;0.30;;;7.10;91.40;;;;;;20914440;28;20036;-44
2024/01/24 19:43:40;;;;;;;0.60;0.30;;;6.90;91.70;;;;;;20912011;28;20097;-44
2024/01/24 19:53:43;;;;;;;0.43;0.30;;;7.00;91.70;;;;;;20912688;28;20047;-44
2024/01/24 20:03:45;;;;;;;1.00;0.40;;;7.50;90.80;;;;;;20914383;28;20113;-43
2024/01/24 20:13:48;;;;;;;0.93;0.50;;;7.30;91.00;;;;;;20913965;28;21141;-42
2024/01/24 20:23:50;;;;;;;0.90;0.43;;;7.00;91.90;;;;;;20909380;28;20040;-45
2024/01/24 20:33:52;;;;;;;0.80;0.47;;;7.00;92.10;;;;;;20908325;28;20051;-43
2024/01/24 20:43:54;;;;;;;0.93;0.50;;;6.80;92.50;;;;;;20867452;28;20066;-43
2024/01/24 20:53:59;;;;;;;0.85;0.40;;;6.60;92.70;;;;;;20867758;28;20037;-43
2024/01/24 21:04:03;;;;;;;0.70;0.40;;;6.70;93.00;;;;;;20867891;28;20036;-45
2024/01/24 21:14:05;;;;;;;0.40;0.20;;;7.00;92.50;;;;;;20866519;28;20036;-43
2024/01/24 21:24:07;;;;;;;0.88;0.30;;;7.10;92.30;;;;;;20866874;28;20040;-43
2024/01/24 21:34:09;;;;;;;0.52;0.30;;;7.00;92.70;;;;;;20867277;28;20048;-43
2024/01/24 21:44:14;;;;;;;0.47;0.30;;;6.90;93.00;;;;;;20907122;28;20093;-46
2024/01/24 21:54:19;;;;;;;0.22;0.20;;;6.60;93.80;;;;;;20905646;28;21191;-43
2024/01/24 22:04:21;;;;;;;0.52;0.20;;;6.40;94.10;;;;;;20905541;28;20078;-45
2024/01/24 22:14:23;;;;;;;0.90;0.10;;;6.70;93.90;;;;;;20905215;28;20525;-45
2024/01/24 22:24:28;;;;;;;0.52;0.20;;;7.30;92.70;;;;;;20912154;28;20036;-47
2024/01/24 22:34:29;;;;;;;0.55;0.20;;;7.40;92.50;;;;;;20918673;28;20695;-44
2024/01/24 22:44:32;;;;;;;0.55;0.10;;;7.20;92.70;;;;;;20917590;28;20412;-46
2024/01/24 22:54:34;;;;;;;0.45;0.20;;;7.20;92.70;;;;;;20918289;28;20074;-43
2024/01/24 23:04:35;;;;;;;0.47;0.10;;;7.20;92.70;;;;;;20915502;28;20036;-45
2024/01/24 23:14:41;;;;;;;0.30;0.17;;;7.30;93.00;;;;;;20916917;28;21267;-44
2024/01/24 23:24:43;;;;;;;0.90;0.15;;;7.00;94.00;;;;;;20913912;28;21138;-45
2024/01/24 23:34:47;;;;;;;0.30;0.10;;;6.40;95.20;;;;;;20906264;28;20132;-45
2024/01/24 23:44:49;;;;;;;0.80;0.10;;;6.20;95.40;;;;;;20873027;28;20157;-43
2024/01/24 23:54:51;;;;;;;0.30;0.10;;;6.00;95.80;;;;;;20870669;28;20040;-47
